createdAt,value
2022-10-02T00:02:01.028Z,98817.71
2022-10-02T00:04:36.959Z,98819.06
2022-10-02T00:07:07.392Z,98823.34
2022-10-02T00:09:42.270Z,98822.21
2022-10-02T00:12:15.693Z,98823.94
2022-10-02T00:14:46.278Z,98835.70
2022-10-02T00:17:21.867Z,98838.24
2022-10-02T00:19:53.810Z,98841.96
2022-10-02T00:22:33.355Z,98838.20
2022-10-02T00:25:06.597Z,98842.36
2022-10-02T00:27:49.848Z,98846.89
2022-10-02T00:30:18.970Z,98849.02
2022-10-02T00:33:02.433Z,98859.11
2022-10-02T00:36:02.382Z,98858.30
2022-10-02T00:38:44.713Z,98858.29
2022-10-02T00:41:44.391Z,98865.08
2022-10-02T00:44:28.168Z,98868.92
2022-10-02T00:47:03.341Z,98874.86
2022-10-02T00:49:48.789Z,98876.56
2022-10-02T00:52:36.768Z,98885.29
2022-10-02T00:55:31.448Z,98890.42
2022-10-02T00:58:15.968Z,98895.29
2022-10-02T01:00:54.860Z,98894.42
2022-10-02T01:03:28.218Z,98895.69
2022-10-02T01:05:56.399Z,98902.58
2022-10-02T01:08:24.617Z,98912.63
2022-10-02T01:10:52.701Z,98914.44
2022-10-02T01:13:21.696Z,98914.59
2022-10-02T01:15:54.408Z,98916.05
2022-10-02T01:18:22.830Z,98918.75
2022-10-02T01:20:54.429Z,98922.23
2022-10-02T01:23:31.592Z,98922.39
2022-10-02T01:26:00.179Z,98919.95
2022-10-02T01:28:29.257Z,98925.86
2022-10-02T01:31:02.262Z,98932.05
2022-10-02T01:33:31.183Z,98936.91
2022-10-02T01:35:59.239Z,98936.91
2022-10-02T01:38:28.575Z,98933.19
2022-10-02T01:40:56.802Z,98937.95
2022-10-02T01:43:28.568Z,98940.75
2022-10-02T01:46:15.001Z,98941.13
2022-10-02T01:48:47.232Z,98945.89
2022-10-02T01:51:46.471Z,98942.33
2022-10-02T01:54:25.547Z,98946.86
2022-10-02T01:57:06.422Z,98943.48
2022-10-02T01:59:46.397Z,98939.98
2022-10-02T02:02:21.290Z,98942.69
2022-10-02T02:04:57.517Z,98937.20
2022-10-02T02:07:34.983Z,98940.73
2022-10-02T02:10:13.391Z,98948.98
2022-10-02T02:12:45.482Z,98955.70
2022-10-02T02:15:20.064Z,98956.98
2022-10-02T02:17:52.214Z,98962.08
2022-10-02T02:20:25.168Z,98964.92
2022-10-02T02:22:55.183Z,98972.45
2022-10-02T02:25:26.295Z,98972.69
2022-10-02T02:27:58.606Z,98976.39
2022-10-02T02:30:31.005Z,98981.98
2022-10-02T02:33:05.508Z,98982.90
2022-10-02T02:35:39.094Z,98982.23
2022-10-02T02:38:10.010Z,98981.60
2022-10-02T02:40:43.449Z,98987.83
2022-10-02T02:43:17.297Z,98990.27
2022-10-02T02:45:50.209Z,98988.97
2022-10-02T02:48:23.847Z,98987.96
2022-10-02T02:50:56.254Z,98987.73
2022-10-02T02:53:28.043Z,98987.67
2022-10-02T02:55:59.844Z,98988.14
2022-10-02T02:58:31.285Z,98994.88
2022-10-02T03:00:59.496Z,98995.48
2022-10-02T03:03:27.603Z,99003.55
2022-10-02T03:06:03.322Z,98999.99
2022-10-02T03:08:35.792Z,99001.79
2022-10-02T03:11:18.729Z,99005.95
2022-10-02T03:13:58.358Z,99011.17
2022-10-02T03:16:39.623Z,99015.91
2022-10-02T03:19:21.009Z,99016.64
2022-10-02T03:22:02.260Z,99017.37
2022-10-02T03:24:36.415Z,99019.60
2022-10-02T03:27:08.900Z,99026.25
2022-10-02T03:29:43.766Z,99032.58
2022-10-02T03:32:15.084Z,99038.37
2022-10-02T03:34:43.669Z,99039.84
2022-10-02T03:37:12.545Z,99041.77
2022-10-02T03:39:43.987Z,99042.17
2022-10-02T03:42:14.664Z,99036.31
2022-10-02T03:44:43.095Z,99039.98
2022-10-02T03:47:11.100Z,99036.02
2022-10-02T03:49:40.100Z,99041.06
2022-10-02T03:52:13.450Z,99042.34
2022-10-02T03:54:41.625Z,99045.08
2022-10-02T03:57:17.688Z,99046.91
2022-10-02T03:59:53.698Z,99045.66
2022-10-02T04:02:33.323Z,99046.40
2022-10-02T04:05:09.490Z,99045.43
2022-10-02T04:07:42.253Z,99049.69
2022-10-02T04:10:27.606Z,99049.61
2022-10-02T04:13:02.110Z,99052.68
2022-10-02T04:15:39.858Z,99056.55
2022-10-02T04:18:16.025Z,99057.54
2022-10-02T04:20:50.361Z,99056.65
2022-10-02T04:23:25.845Z,99054.27
2022-10-02T04:26:00.000Z,99057.08
2022-10-02T04:28:34.928Z,99058.81
2022-10-02T04:31:05.617Z,99059.08
2022-10-02T04:33:38.241Z,99055.25
2022-10-02T04:36:18.415Z,99057.58
2022-10-02T04:39:05.190Z,99062.67
2022-10-02T04:41:48.986Z,99064.95
2022-10-02T04:44:30.925Z,99068.79
2022-10-02T04:47:19.736Z,99069.52
2022-10-02T04:50:15.942Z,99072.95
2022-10-02T04:53:01.023Z,99072.91
2022-10-02T04:55:43.293Z,99078.64
2022-10-02T04:58:31.115Z,99078.30
2022-10-02T05:01:08.976Z,99078.70
2022-10-02T05:03:55.569Z,99077.55
2022-10-02T05:06:41.551Z,99082.89
2022-10-02T05:09:18.645Z,99077.66
2022-10-02T05:11:57.853Z,99084.21
2022-10-02T05:14:45.931Z,99083.66
2022-10-02T05:17:29.605Z,99087.31
2022-10-02T05:20:17.149Z,99082.52
2022-10-02T05:23:04.508Z,99081.84
2022-10-02T05:25:56.848Z,99083.45
2022-10-02T05:28:40.648Z,99084.36
2022-10-02T05:31:21.523Z,99082.42
2022-10-02T05:34:01.447Z,99081.63
2022-10-02T05:36:47.237Z,99083.16
2022-10-02T05:39:18.507Z,99084.95
2022-10-02T05:41:54.850Z,99091.04
2022-10-02T05:44:28.378Z,99090.14
2022-10-02T05:47:02.756Z,99084.05
2022-10-02T05:49:34.864Z,99084.27
2022-10-02T05:52:07.561Z,99089.15
2022-10-02T05:54:43.174Z,99095.84
2022-10-02T05:57:16.605Z,99084.86
2022-10-02T05:59:56.565Z,99089.55
2022-10-02T06:02:36.751Z,99098.80
2022-10-02T06:05:14.938Z,99097.83
2022-10-02T06:07:45.835Z,99100.64
2022-10-02T06:10:19.073Z,99105.04
2022-10-02T06:12:53.468Z,99103.54
2022-10-02T06:15:26.290Z,99102.25
2022-10-02T06:17:59.790Z,99104.48
2022-10-02T06:20:34.498Z,99101.16
2022-10-02T06:23:07.962Z,99104.85
2022-10-02T06:25:42.585Z,99106.31
2022-10-02T06:28:16.267Z,99109.04
2022-10-02T06:30:46.613Z,99110.56
2022-10-02T06:33:19.753Z,99111.05
2022-10-02T06:36:08.458Z,99111.09
2022-10-02T06:39:03.352Z,99114.36
2022-10-02T06:41:40.893Z,99110.73
2022-10-02T06:44:18.084Z,99113.52
2022-10-02T06:46:56.929Z,99115.45
2022-10-02T06:49:36.485Z,99117.90
2022-10-02T06:52:15.936Z,99114.79
2022-10-02T06:54:58.612Z,99113.77
2022-10-02T06:57:53.839Z,99114.69
2022-10-02T07:00:22.419Z,99112.91
2022-10-02T07:03:08.504Z,99113.44
2022-10-02T07:06:16.502Z,99114.00
2022-10-02T07:09:03.068Z,99118.02
2022-10-02T07:11:40.283Z,99113.52
2022-10-02T07:14:27.375Z,99109.73
2022-10-02T07:17:21.521Z,99114.27
2022-10-02T07:20:06.117Z,99113.86
2022-10-02T07:22:51.507Z,99119.70
2022-10-02T07:25:34.101Z,99120.88
2022-10-02T07:28:12.121Z,99123.45
2022-10-02T07:30:48.895Z,99125.65
2022-10-02T07:33:30.038Z,99129.38
2022-10-02T07:36:05.294Z,99136.26
2022-10-02T07:39:02.731Z,99132.86
2022-10-02T07:41:52.986Z,99131.50
2022-10-02T07:44:55.908Z,99131.44
2022-10-02T07:47:46.055Z,99126.22
2022-10-02T07:50:18.755Z,99131.02
2022-10-02T07:52:57.579Z,99137.45
2022-10-02T07:55:26.679Z,99137.16
2022-10-02T07:58:02.525Z,99134.77
2022-10-02T08:00:36.236Z,99136.30
2022-10-02T08:03:10.115Z,99135.48
2022-10-02T08:05:41.569Z,99132.86
2022-10-02T08:08:16.289Z,99133.52
2022-10-02T08:10:51.483Z,99131.23
2022-10-02T08:13:24.079Z,99132.10
2022-10-02T08:15:55.215Z,99129.52
2022-10-02T08:18:35.554Z,99127.63
2022-10-02T08:21:09.695Z,99127.92
2022-10-02T08:23:43.304Z,99120.48
2022-10-02T08:26:17.778Z,99119.27
2022-10-02T08:28:56.283Z,99118.44
2022-10-02T08:31:25.242Z,99110.00
2022-10-02T08:33:53.436Z,99107.90
2022-10-02T08:36:42.988Z,99106.64
2022-10-02T08:39:33.918Z,99104.98
2022-10-02T08:42:26.677Z,99105.05
2022-10-02T08:45:19.509Z,99105.09
2022-10-02T08:48:23.124Z,99096.19
2022-10-02T08:51:21.523Z,99102.73
2022-10-02T08:54:16.006Z,99101.45
2022-10-02T08:57:05.981Z,99103.84
2022-10-02T09:00:08.396Z,99106.71
2022-10-02T09:03:24.125Z,99094.88
2022-10-02T09:06:30.256Z,99094.12
2022-10-02T09:09:46.639Z,99091.23
2022-10-02T09:12:44.080Z,99085.21
2022-10-02T09:15:23.301Z,99082.20
2022-10-02T09:18:10.079Z,99089.05
2022-10-02T09:21:01.512Z,99091.23
2022-10-02T09:24:12.545Z,99089.78
2022-10-02T09:27:00.481Z,99087.16
2022-10-02T09:30:08.974Z,99085.48
2022-10-02T09:33:38.830Z,99086.32
2022-10-02T09:36:45.307Z,99086.52
2022-10-02T09:39:48.798Z,99080.07
2022-10-02T09:42:38.476Z,99080.90
2022-10-02T09:45:40.137Z,99083.80
2022-10-02T09:48:48.613Z,99084.89
2022-10-02T09:51:57.219Z,99087.19
2022-10-02T09:54:55.881Z,99086.32
2022-10-02T09:57:54.868Z,99081.32
2022-10-02T10:00:37.166Z,99078.00
2022-10-02T10:03:37.611Z,99081.30
2022-10-02T10:06:45.697Z,99070.45
2022-10-02T10:09:46.468Z,99069.52
2022-10-02T10:13:01.037Z,99058.33
2022-10-02T10:16:13.709Z,99059.48
2022-10-02T10:19:11.694Z,99051.81
2022-10-02T10:22:02.319Z,99048.76
2022-10-02T10:24:51.769Z,99050.02
2022-10-02T10:27:56.072Z,99048.76
2022-10-02T10:31:04.659Z,99039.10
2022-10-02T10:34:09.377Z,99027.99
2022-10-02T10:37:14.550Z,99020.71
2022-10-02T10:40:24.455Z,99018.48
2022-10-02T10:43:16.433Z,99018.20
2022-10-02T10:45:55.891Z,99017.04
2022-10-02T10:48:49.182Z,99015.91
2022-10-02T10:51:38.752Z,99013.24
2022-10-02T10:54:40.086Z,99008.04
2022-10-02T10:57:22.849Z,99006.46
2022-10-02T11:00:13.652Z,99000.64
2022-10-02T11:02:54.774Z,99000.97
2022-10-02T11:05:39.638Z,99000.33
2022-10-02T11:08:30.784Z,98994.61
2022-10-02T11:11:11.787Z,98994.15
2022-10-02T11:13:55.441Z,98994.27
2022-10-02T11:16:49.784Z,98994.25
2022-10-02T11:19:37.129Z,98992.34
2022-10-02T11:22:21.129Z,98994.31
2022-10-02T11:25:32.999Z,98994.54
2022-10-02T11:28:51.734Z,98991.30
2022-10-02T11:31:59.105Z,98990.38
2022-10-02T11:34:43.310Z,98987.80
2022-10-02T11:37:31.255Z,98981.19
2022-10-02T11:40:40.191Z,98978.67
2022-10-02T11:43:32.075Z,98978.55
2022-10-02T11:46:06.409Z,98977.34
2022-10-02T11:49:26.386Z,98972.63
2022-10-02T11:52:21.606Z,98964.23
2022-10-02T11:55:04.616Z,98960.43
2022-10-02T11:57:46.801Z,98951.02
2022-10-02T12:00:39.028Z,98948.39
2022-10-02T12:03:17.530Z,98948.98
2022-10-02T12:05:58.424Z,98944.32
2022-10-02T12:08:42.228Z,98941.83
2022-10-02T12:11:19.826Z,98939.85
2022-10-02T12:14:09.686Z,98937.85
2022-10-02T12:16:51.937Z,98930.15
2022-10-02T12:19:33.919Z,98926.38
2022-10-02T12:22:29.581Z,98922.44
2022-10-02T12:25:33.505Z,98922.59
2022-10-02T12:28:13.221Z,98921.52
2022-10-02T12:30:45.963Z,98918.34
2022-10-02T12:33:33.974Z,98918.58
2022-10-02T12:36:23.718Z,98909.48
2022-10-02T12:39:04.546Z,98901.09
2022-10-02T12:41:48.091Z,98901.83
2022-10-02T12:44:53.068Z,98904.21
2022-10-02T12:47:48.088Z,98902.15
2022-10-02T12:50:26.830Z,98898.14
2022-10-02T12:53:22.725Z,98892.17
2022-10-02T12:56:41.162Z,98887.77
2022-10-02T12:59:18.513Z,98887.20
2022-10-02T13:02:11.655Z,98883.64
2022-10-02T13:05:14.751Z,98884.70
2022-10-02T13:08:13.606Z,98887.11
2022-10-02T13:10:46.452Z,98884.11
2022-10-02T13:13:31.137Z,98881.31
2022-10-02T13:16:08.087Z,98880.58
2022-10-02T13:18:59.138Z,98882.24
2022-10-02T13:21:38.421Z,98882.77
2022-10-02T13:24:19.561Z,98884.92
2022-10-02T13:26:55.707Z,98886.79
2022-10-02T13:29:42.303Z,98882.77
2022-10-02T13:32:23.587Z,98879.85
2022-10-02T13:35:18.444Z,98881.92
2022-10-02T13:37:57.216Z,98880.69
2022-10-02T13:40:30.508Z,98886.27
2022-10-02T13:43:24.961Z,98883.64
2022-10-02T13:46:01.837Z,98883.64
2022-10-02T13:48:42.798Z,98884.95
2022-10-02T13:51:18.921Z,98882.34
2022-10-02T13:54:13.197Z,98882.04
2022-10-02T13:56:50.732Z,98881.45
2022-10-02T13:59:45.223Z,98882.91
2022-10-02T14:02:22.349Z,98881.59
2022-10-02T14:04:58.512Z,98878.94
2022-10-02T14:07:41.074Z,98881.80
2022-10-02T14:10:22.516Z,98874.04
2022-10-02T14:13:17.554Z,98874.88
2022-10-02T14:16:09.930Z,98871.44
2022-10-02T14:18:54.842Z,98868.31
2022-10-02T14:21:30.773Z,98869.55
2022-10-02T14:24:56.487Z,98865.77
2022-10-02T14:27:57.853Z,98869.38
2022-10-02T14:30:37.405Z,98875.38
2022-10-02T14:33:16.188Z,98879.20
2022-10-02T14:35:52.149Z,98877.11
2022-10-02T14:38:30.970Z,98880.48
2022-10-02T14:41:09.575Z,98876.95
2022-10-02T14:43:59.052Z,98879.52
2022-10-02T14:46:40.130Z,98877.49
2022-10-02T14:49:44.558Z,98876.97
2022-10-02T14:52:29.903Z,98884.66
2022-10-02T14:55:15.543Z,98888.19
2022-10-02T14:58:14.766Z,98893.06
2022-10-02T15:01:00.991Z,98895.15
2022-10-02T15:04:04.819Z,98907.67
2022-10-02T15:06:56.699Z,98913.98
2022-10-02T15:09:28.536Z,98910.96
2022-10-02T15:12:09.724Z,98901.42
2022-10-02T15:14:47.881Z,98894.23
2022-10-02T15:17:45.101Z,98898.02
2022-10-02T15:20:23.788Z,98895.14
2022-10-02T15:22:59.273Z,98894.92
2022-10-02T15:25:49.580Z,98898.16
2022-10-02T15:28:41.826Z,98892.45
2022-10-02T15:31:21.030Z,98887.90
2022-10-02T15:33:58.922Z,98878.63
2022-10-02T15:36:46.186Z,98885.41
2022-10-02T15:39:44.762Z,98887.20
2022-10-02T15:42:19.396Z,98885.91
2022-10-02T15:45:15.152Z,98888.63
2022-10-02T15:48:07.627Z,98886.34
2022-10-02T15:50:51.882Z,98886.40
2022-10-02T15:53:33.073Z,98881.04
2022-10-02T15:56:16.113Z,98881.05
2022-10-02T15:59:00.375Z,98885.27
2022-10-02T16:01:44.202Z,98887.36
2022-10-02T16:04:25.327Z,98892.47
2022-10-02T16:07:36.587Z,98895.98
2022-10-02T16:10:18.933Z,98894.36
2022-10-02T16:13:01.240Z,98895.70
2022-10-02T16:15:40.322Z,98898.63
2022-10-02T16:18:35.910Z,98899.29
2022-10-02T16:21:26.321Z,98901.88
2022-10-02T16:24:08.119Z,98898.68
2022-10-02T16:27:02.842Z,98897.85
2022-10-02T16:29:41.558Z,98904.05
2022-10-02T16:32:18.325Z,98903.02
2022-10-02T16:35:10.558Z,98898.52
2022-10-02T16:37:45.984Z,98895.89
2022-10-02T16:40:28.805Z,98896.73
2022-10-02T16:43:28.330Z,98904.19
2022-10-02T16:46:05.344Z,98912.50
2022-10-02T16:48:46.961Z,98910.81
2022-10-02T16:51:28.010Z,98917.90
2022-10-02T16:54:04.859Z,98925.48
2022-10-02T16:56:40.637Z,98934.54
2022-10-02T16:59:16.142Z,98938.07
2022-10-02T17:02:15.919Z,98941.10
2022-10-02T17:04:49.594Z,98951.02
2022-10-02T17:07:41.148Z,98953.62
2022-10-02T17:10:20.278Z,98953.34
2022-10-02T17:12:56.116Z,98955.75
2022-10-02T17:15:33.693Z,98959.54
2022-10-02T17:18:13.524Z,98962.16
2022-10-02T17:20:48.048Z,98956.05
2022-10-02T17:23:24.192Z,98959.93
2022-10-02T17:25:59.752Z,98963.86
2022-10-02T17:28:35.474Z,98964.08
2022-10-02T17:31:23.165Z,98970.23
2022-10-02T17:33:55.984Z,98975.94
2022-10-02T17:36:33.155Z,98975.91
2022-10-02T17:39:30.551Z,98973.89
2022-10-02T17:42:09.721Z,98981.80
2022-10-02T17:44:56.281Z,98981.23
2022-10-02T17:47:37.509Z,98987.67
2022-10-02T17:50:33.784Z,98990.15
2022-10-02T17:53:33.625Z,98991.16
2022-10-02T17:56:28.884Z,98998.11
2022-10-02T17:59:23.572Z,99005.04
2022-10-02T18:02:03.190Z,99012.63
2022-10-02T18:04:45.169Z,99010.09
2022-10-02T18:07:37.834Z,99001.05
2022-10-02T18:10:20.238Z,98997.02
2022-10-02T18:13:14.523Z,98996.06
2022-10-02T18:15:55.098Z,99004.41
2022-10-02T18:18:32.979Z,99006.90
2022-10-02T18:21:23.051Z,99006.70
2022-10-02T18:24:18.663Z,99010.31
2022-10-02T18:27:03.529Z,99010.91
2022-10-02T18:29:54.587Z,99005.76
2022-10-02T18:32:44.141Z,99002.14
2022-10-02T18:35:34.659Z,99002.70
2022-10-02T18:38:13.309Z,99007.73
2022-10-02T18:41:01.132Z,99016.08
2022-10-02T18:43:45.383Z,99018.27
2022-10-02T18:46:23.073Z,99021.98
2022-10-02T18:49:20.924Z,99027.72
2022-10-02T18:52:16.120Z,99023.27
2022-10-02T18:54:58.240Z,99024.70
2022-10-02T18:57:42.581Z,99024.77
2022-10-02T19:00:21.442Z,99028.60
2022-10-02T19:03:17.559Z,99023.55
2022-10-02T19:05:53.506Z,99027.88
2022-10-02T19:08:28.404Z,99031.05
2022-10-02T19:10:56.681Z,99041.02
2022-10-02T19:13:28.185Z,99044.77
2022-10-02T19:16:00.131Z,99050.92
2022-10-02T19:18:30.839Z,99047.67
2022-10-02T19:21:06.222Z,99046.63
2022-10-02T19:23:38.982Z,99049.30
2022-10-02T19:26:17.273Z,99053.90
2022-10-02T19:28:48.960Z,99054.67
2022-10-02T19:31:22.813Z,99055.84
2022-10-02T19:33:54.031Z,99052.94
2022-10-02T19:36:25.552Z,99056.93
2022-10-02T19:38:58.844Z,99065.45
2022-10-02T19:41:27.495Z,99068.14
2022-10-02T19:44:02.476Z,99070.64
2022-10-02T19:46:39.216Z,99069.63
2022-10-02T19:49:14.401Z,99069.77
2022-10-02T19:51:45.040Z,99067.83
2022-10-02T19:54:19.660Z,99067.62
2022-10-02T19:56:51.612Z,99061.06
2022-10-02T19:59:24.621Z,99069.25
2022-10-02T20:01:54.587Z,99069.98
2022-10-02T20:04:25.368Z,99075.20
2022-10-02T20:06:58.626Z,99077.42
2022-10-02T20:09:33.347Z,99077.69
2022-10-02T20:12:06.062Z,99081.70
2022-10-02T20:14:41.021Z,99084.16
2022-10-02T20:17:12.151Z,99090.11
2022-10-02T20:19:44.968Z,99087.35
2022-10-02T20:22:23.274Z,99089.95
2022-10-02T20:24:57.202Z,99091.77
2022-10-02T20:27:35.568Z,99093.42
2022-10-02T20:30:11.633Z,99093.34
2022-10-02T20:32:46.127Z,99097.77
2022-10-02T20:35:20.286Z,99102.13
2022-10-02T20:37:51.450Z,99106.33
2022-10-02T20:40:25.364Z,99106.20
2022-10-02T20:43:00.680Z,99116.58
2022-10-02T20:45:36.677Z,99118.80
2022-10-02T20:48:55.609Z,99124.42
2022-10-02T20:51:45.702Z,99122.60
2022-10-02T20:54:46.465Z,99125.65
2022-10-02T20:57:59.622Z,99123.27
2022-10-02T21:00:33.273Z,99121.19
2022-10-02T21:03:22.171Z,99130.02
2022-10-02T21:06:18.106Z,99127.91
2022-10-02T21:09:11.389Z,99132.02
2022-10-02T21:12:15.356Z,99135.48
2022-10-02T21:15:07.711Z,99141.63
2022-10-02T21:18:11.174Z,99139.38
2022-10-02T21:21:24.611Z,99145.19
2022-10-02T21:24:35.807Z,99142.69
2022-10-02T21:27:35.679Z,99147.48
2022-10-02T21:30:11.357Z,99147.73
2022-10-02T21:32:55.289Z,99151.55
2022-10-02T21:35:39.817Z,99152.95
2022-10-02T21:38:53.109Z,99154.23
2022-10-02T21:41:58.108Z,99152.00
2022-10-02T21:45:09.019Z,99154.05
2022-10-02T21:48:21.385Z,99156.02
2022-10-02T21:51:25.263Z,99159.52
2022-10-02T21:54:29.088Z,99156.62
2022-10-02T21:57:36.617Z,99160.94
2022-10-02T22:00:21.245Z,99162.27
2022-10-02T22:03:29.452Z,99163.46
2022-10-02T22:06:25.599Z,99169.00
2022-10-02T22:09:13.322Z,99161.14
2022-10-02T22:11:56.536Z,99165.10
2022-10-02T22:14:32.915Z,99168.90
2022-10-02T22:17:13.990Z,99167.20
2022-10-02T22:20:07.482Z,99163.56
2022-10-02T22:22:51.180Z,99170.02
2022-10-02T22:25:32.667Z,99173.36
2022-10-02T22:28:14.887Z,99172.96
2022-10-02T22:31:02.058Z,99174.98
2022-10-02T22:33:43.768Z,99174.33
2022-10-02T22:36:37.354Z,99171.63
2022-10-02T22:39:14.077Z,99173.64
2022-10-02T22:41:50.068Z,99176.28
2022-10-02T22:44:26.246Z,99178.45
2022-10-02T22:47:01.296Z,99182.98
2022-10-02T22:49:36.608Z,99186.78
2022-10-02T22:52:10.052Z,99190.20
2022-10-02T22:54:46.457Z,99191.40
2022-10-02T22:57:21.069Z,99191.77
2022-10-02T22:59:55.826Z,99195.86
2022-10-02T23:02:31.844Z,99189.97
2022-10-02T23:05:10.099Z,99191.92
2022-10-02T23:07:46.546Z,99190.60
2022-10-02T23:10:25.149Z,99193.84
2022-10-02T23:13:01.288Z,99190.27
2022-10-02T23:15:41.918Z,99196.72
2022-10-02T23:18:25.027Z,99194.13
2022-10-02T23:21:02.008Z,99201.45
2022-10-02T23:23:36.789Z,99205.30
2022-10-02T23:26:12.391Z,99205.90
2022-10-02T23:28:50.233Z,99205.80
2022-10-02T23:31:29.732Z,99207.84
2022-10-02T23:34:17.284Z,99207.25
2022-10-02T23:36:52.293Z,99209.36
2022-10-02T23:39:27.578Z,99207.47
2022-10-02T23:41:58.245Z,99204.56
2022-10-02T23:44:33.736Z,99206.10
2022-10-02T23:47:10.738Z,99204.53
2022-10-02T23:49:43.420Z,99201.41
2022-10-02T23:52:28.921Z,99201.84
2022-10-02T23:55:17.084Z,99203.27
2022-10-02T23:58:04.393Z,99209.39
